createdAt,value
2023-04-20T00:00:11.042Z,98875.69
2023-04-20T00:02:21.902Z,98879.91
2023-04-20T00:04:27.056Z,98879.91
2023-04-20T00:06:33.150Z,98864.91
2023-04-20T00:08:38.217Z,98865.75
2023-04-20T00:10:43.540Z,98862.44
2023-04-20T00:12:48.923Z,98862.38
2023-04-20T00:14:54.002Z,98859.88
2023-04-20T00:16:59.752Z,98863.22
2023-04-20T00:19:08.392Z,98854.91
2023-04-20T00:21:13.703Z,98855.66
2023-04-20T00:23:18.827Z,98848.19
2023-04-20T00:25:24.622Z,98841.56
2023-04-20T00:27:30.950Z,98839.06
2023-04-20T00:29:36.806Z,98842.41
2023-04-20T00:31:43.769Z,98835.78
2023-04-20T00:33:52.382Z,98834.94
2023-04-20T00:35:59.964Z,98839.09
2023-04-20T00:38:04.982Z,98832.44
2023-04-20T00:40:11.966Z,98824.13
2023-04-20T00:42:17.399Z,98819.16
2023-04-20T00:44:22.940Z,98823.31
2023-04-20T00:46:28.086Z,98827.50
2023-04-20T00:48:33.167Z,98822.53
2023-04-20T00:50:40.123Z,98820.84
2023-04-20T00:52:48.361Z,98812.53
2023-04-20T00:54:53.704Z,98810.91
2023-04-20T00:56:59.403Z,98805.91
2023-04-20T00:59:05.419Z,98803.44
2023-04-20T01:01:10.498Z,98797.59
2023-04-20T01:03:16.984Z,98801.84
2023-04-20T01:05:27.030Z,98794.34
2023-04-20T01:07:33.721Z,98796.06
2023-04-20T01:09:43.404Z,98797.78
2023-04-20T01:11:48.421Z,98795.28
2023-04-20T01:13:54.703Z,98793.66
2023-04-20T01:16:03.777Z,98792.00
2023-04-20T01:18:09.993Z,98795.38
2023-04-20T01:20:16.546Z,98799.53
2023-04-20T01:22:25.570Z,98802.06
2023-04-20T01:24:31.923Z,98794.56
2023-04-20T01:26:37.439Z,98794.59
2023-04-20T01:28:42.963Z,98790.41
2023-04-20T01:30:48.541Z,98788.75
2023-04-20T01:32:53.724Z,98782.13
2023-04-20T01:34:59.819Z,98785.47
2023-04-20T01:37:08.271Z,98790.44
2023-04-20T01:39:16.600Z,98786.25
2023-04-20T01:41:22.311Z,98787.97
2023-04-20T01:43:27.518Z,98781.28
2023-04-20T01:45:32.618Z,98778.00
2023-04-20T01:47:38.859Z,98778.00
2023-04-20T01:49:45.434Z,98781.31
2023-04-20T01:51:50.655Z,98778.03
2023-04-20T01:53:56.222Z,98771.38
2023-04-20T01:56:03.855Z,98771.41
2023-04-20T01:58:08.892Z,98766.41
2023-04-20T02:00:16.329Z,98768.13
2023-04-20T02:02:22.360Z,98762.28
2023-04-20T02:04:28.146Z,98765.63
2023-04-20T02:06:34.252Z,98760.66
2023-04-20T02:08:39.913Z,98769.78
2023-04-20T02:10:46.344Z,98768.91
2023-04-20T02:12:54.084Z,98764.78
2023-04-20T02:14:59.607Z,98763.16
2023-04-20T02:17:05.681Z,98762.31
2023-04-20T02:19:10.975Z,98761.50
2023-04-20T02:21:16.644Z,98764.84
2023-04-20T02:23:22.126Z,98759.03
2023-04-20T02:25:28.516Z,98758.22
2023-04-20T02:27:33.593Z,98760.72
2023-04-20T02:29:41.658Z,98754.94
2023-04-20T02:31:47.085Z,98757.47
2023-04-20T02:33:54.220Z,98749.97
2023-04-20T02:35:59.562Z,98749.16
2023-04-20T02:38:07.628Z,98753.31
2023-04-20T02:40:13.889Z,98750.84
2023-04-20T02:42:18.979Z,98746.72
2023-04-20T02:44:26.109Z,98748.38
2023-04-20T02:46:33.880Z,98745.03
2023-04-20T02:48:39.011Z,98748.38
2023-04-20T02:50:45.538Z,98745.06
2023-04-20T02:52:57.026Z,98740.91
2023-04-20T02:55:02.816Z,98739.28
2023-04-20T02:57:07.843Z,98736.78
2023-04-20T02:59:13.252Z,98731.78
2023-04-20T03:01:27.904Z,98723.47
2023-04-20T03:03:44.381Z,98723.47
2023-04-20T03:05:50.872Z,98725.97
2023-04-20T03:07:56.236Z,98724.28
2023-04-20T03:10:04.591Z,98721.00
2023-04-20T03:12:26.320Z,98721.00
2023-04-20T03:14:50.689Z,98716.00
2023-04-20T03:16:59.855Z,98710.19
2023-04-20T03:19:08.017Z,98711.00
2023-04-20T03:21:15.068Z,98715.19
2023-04-20T03:23:20.086Z,98711.84
2023-04-20T03:25:25.873Z,98701.06
2023-04-20T03:27:37.958Z,98708.56
2023-04-20T03:29:48.980Z,98710.25
2023-04-20T03:31:55.675Z,98701.94
2023-04-20T03:34:00.798Z,98703.63
2023-04-20T03:36:09.934Z,98708.63
2023-04-20T03:38:15.088Z,98701.16
2023-04-20T03:40:20.558Z,98702.81
2023-04-20T03:42:26.097Z,98700.31
2023-04-20T03:44:32.794Z,98704.44
2023-04-20T03:46:38.450Z,98706.13
2023-04-20T03:48:43.490Z,98700.31
2023-04-20T03:50:49.192Z,98701.16
2023-04-20T03:52:56.827Z,98698.66
2023-04-20T03:55:02.094Z,98701.16
2023-04-20T03:57:07.430Z,98697.00
2023-04-20T03:59:13.215Z,98692.84
2023-04-20T04:01:21.678Z,98694.50
2023-04-20T04:03:28.243Z,98687.84
2023-04-20T04:05:33.794Z,98698.66
2023-04-20T04:07:40.210Z,98693.66
2023-04-20T04:09:47.802Z,98687.03
2023-04-20T04:11:54.180Z,98687.88
2023-04-20T04:14:01.379Z,98686.22
2023-04-20T04:16:08.282Z,98682.88
2023-04-20T04:18:14.048Z,98687.03
2023-04-20T04:20:20.551Z,98686.19
2023-04-20T04:22:25.760Z,98682.88
2023-04-20T04:24:54.757Z,98683.72
2023-04-20T04:27:05.355Z,98681.22
2023-04-20T04:29:14.709Z,98683.72
2023-04-20T04:31:21.630Z,98688.72
2023-04-20T04:33:27.238Z,98695.38
2023-04-20T04:35:33.537Z,98682.06
2023-04-20T04:37:39.472Z,98686.22
2023-04-20T04:39:45.279Z,98687.06
2023-04-20T04:42:10.232Z,98691.16
2023-04-20T04:44:19.796Z,98699.47
2023-04-20T04:46:25.674Z,98688.72
2023-04-20T04:48:31.074Z,98693.69
2023-04-20T04:50:36.333Z,98687.03
2023-04-20T04:52:41.744Z,98685.38
2023-04-20T04:54:47.254Z,98688.69
2023-04-20T04:56:52.265Z,98691.16
2023-04-20T04:59:00.234Z,98690.34
2023-04-20T05:01:05.226Z,98687.00
2023-04-20T05:03:10.811Z,98682.03
2023-04-20T05:05:17.274Z,98691.19
2023-04-20T05:07:22.578Z,98680.34
2023-04-20T05:09:33.968Z,98686.19
2023-04-20T05:11:39.428Z,98694.47
2023-04-20T05:13:44.424Z,98695.31
2023-04-20T05:15:52.482Z,98694.44
2023-04-20T05:17:58.322Z,98694.44
2023-04-20T05:20:06.363Z,98696.09
2023-04-20T05:22:12.167Z,98700.22
2023-04-20T05:24:17.796Z,98703.53
2023-04-20T05:26:23.370Z,98706.84
2023-04-20T05:28:28.709Z,98706.84
2023-04-20T05:30:33.858Z,98709.31
2023-04-20T05:32:42.201Z,98706.78
2023-04-20T05:34:47.261Z,98706.81
2023-04-20T05:36:52.426Z,98703.41
2023-04-20T05:38:57.991Z,98706.81
2023-04-20T05:41:03.334Z,98705.94
2023-04-20T05:43:08.753Z,98710.91
2023-04-20T05:45:15.010Z,98710.88
2023-04-20T05:47:20.044Z,98703.38
2023-04-20T05:49:27.794Z,98707.50
2023-04-20T05:51:34.153Z,98713.28
2023-04-20T05:53:39.649Z,98710.78
2023-04-20T05:55:44.672Z,98714.03
2023-04-20T05:57:50.264Z,98712.38
2023-04-20T05:59:56.148Z,98713.97
2023-04-20T06:02:01.293Z,98709.72
2023-04-20T06:04:06.650Z,98709.72
2023-04-20T06:06:16.812Z,98708.84
2023-04-20T06:08:21.952Z,98711.28
2023-04-20T06:10:32.393Z,98713.69
2023-04-20T06:12:38.293Z,98713.63
2023-04-20T06:14:43.287Z,98711.88
2023-04-20T06:16:48.290Z,98717.75
2023-04-20T06:18:53.788Z,98721.00
2023-04-20T06:21:00.100Z,98715.16
2023-04-20T06:23:08.013Z,98715.13
2023-04-20T06:25:13.617Z,98704.16
2023-04-20T06:27:18.624Z,98706.69
2023-04-20T06:29:24.351Z,98702.44
2023-04-20T06:31:29.410Z,98703.16
2023-04-20T06:33:35.143Z,98697.28
2023-04-20T06:35:40.359Z,98693.75
2023-04-20T06:37:45.403Z,98697.13
2023-04-20T06:39:56.856Z,98695.41
2023-04-20T06:42:02.607Z,98690.41
2023-04-20T06:44:08.666Z,98694.34
2023-04-20T06:46:13.720Z,98696.72
2023-04-20T06:48:31.373Z,98695.91
2023-04-20T06:50:37.746Z,98696.63
2023-04-20T06:52:44.215Z,98699.00
2023-04-20T06:54:52.079Z,98691.28
2023-04-20T06:56:57.273Z,98692.72
2023-04-20T06:59:02.581Z,98702.47
2023-04-20T07:01:08.365Z,98704.75
2023-04-20T07:03:13.848Z,98702.25
2023-04-20T07:05:21.173Z,98706.09
2023-04-20T07:07:26.228Z,98710.31
2023-04-20T07:09:31.396Z,98698.34
2023-04-20T07:11:39.114Z,98711.41
2023-04-20T07:13:44.379Z,98714.47
2023-04-20T07:15:49.644Z,98700.38
2023-04-20T07:17:54.728Z,98706.28
2023-04-20T07:20:06.845Z,98712.00
2023-04-20T07:22:11.868Z,98711.16
2023-04-20T07:24:16.855Z,98714.69
2023-04-20T07:26:21.877Z,98722.28
2023-04-20T07:28:29.451Z,98724.69
2023-04-20T07:30:34.951Z,98713.97
2023-04-20T07:32:41.907Z,98712.00
2023-04-20T07:34:46.962Z,98719.47
2023-04-20T07:36:52.178Z,98717.25
2023-04-20T07:38:57.252Z,98725.91
2023-04-20T07:41:02.584Z,98732.72
2023-04-20T07:43:07.587Z,98721.75
2023-04-20T07:45:17.139Z,98722.66
2023-04-20T07:47:22.203Z,98729.13
2023-04-20T07:49:27.525Z,98734.06
2023-04-20T07:51:34.519Z,98726.91
2023-04-20T07:53:39.517Z,98720.19
2023-04-20T07:55:44.554Z,98729.00
2023-04-20T07:57:49.555Z,98720.63
2023-04-20T07:59:54.789Z,98720.66
2023-04-20T08:02:06.202Z,98717.91
2023-04-20T08:04:11.549Z,98718.16
2023-04-20T08:06:16.895Z,98711.47
2023-04-20T08:08:22.072Z,98718.47
2023-04-20T08:10:27.523Z,98718.44
2023-04-20T08:12:33.740Z,98723.25
2023-04-20T08:14:38.766Z,98715.91
2023-04-20T08:16:44.837Z,98718.16
2023-04-20T08:18:52.430Z,98718.13
2023-04-20T08:20:57.735Z,98722.94
2023-04-20T08:23:02.733Z,98717.00
2023-04-20T08:25:08.735Z,98706.94
2023-04-20T08:27:13.747Z,98706.41
2023-04-20T08:29:19.069Z,98702.09
2023-04-20T08:31:24.125Z,98702.59
2023-04-20T08:33:29.381Z,98702.78
2023-04-20T08:35:37.047Z,98694.53
2023-04-20T08:37:43.244Z,98687.78
2023-04-20T08:39:48.493Z,98693.44
2023-04-20T08:41:55.842Z,98685.22
2023-04-20T08:44:01.239Z,98682.72
2023-04-20T08:46:06.337Z,98678.34
2023-04-20T08:48:13.348Z,98677.06
2023-04-20T08:50:19.363Z,98679.94
2023-04-20T08:52:26.961Z,98680.31
2023-04-20T08:54:32.611Z,98674.91
2023-04-20T08:56:40.679Z,98670.19
2023-04-20T08:58:45.859Z,98672.19
2023-04-20T09:00:51.590Z,98674.03
2023-04-20T09:02:59.217Z,98671.09
2023-04-20T09:05:06.303Z,98666.59
2023-04-20T09:07:21.563Z,98668.56
2023-04-20T09:09:29.244Z,98675.78
2023-04-20T09:11:34.287Z,98675.16
2023-04-20T09:13:39.689Z,98681.00
2023-04-20T09:15:45.008Z,98676.03
2023-04-20T09:17:50.053Z,98684.94
2023-04-20T09:19:57.091Z,98679.56
2023-04-20T09:22:06.779Z,98684.78
2023-04-20T09:24:12.062Z,98680.28
2023-04-20T09:26:23.404Z,98675.88
2023-04-20T09:28:39.556Z,98677.06
2023-04-20T09:30:47.796Z,98679.94
2023-04-20T09:33:03.168Z,98676.31
2023-04-20T09:35:10.070Z,98674.47
2023-04-20T09:37:18.752Z,98672.97
2023-04-20T09:39:25.679Z,98668.94
2023-04-20T09:41:34.830Z,98667.16
2023-04-20T09:43:40.465Z,98669.94
2023-04-20T09:45:46.521Z,98666.44
2023-04-20T09:47:52.728Z,98670.31
2023-04-20T09:50:00.105Z,98664.50
2023-04-20T09:52:07.236Z,98676.56
2023-04-20T09:54:13.578Z,98670.88
2023-04-20T09:56:21.069Z,98668.09
2023-04-20T09:58:29.071Z,98663.94
2023-04-20T10:00:34.258Z,98664.16
2023-04-20T10:02:39.760Z,98656.75
2023-04-20T10:04:59.627Z,98659.38
2023-04-20T10:07:06.463Z,98659.16
2023-04-20T10:09:23.439Z,98656.09
2023-04-20T10:11:44.526Z,98656.09
2023-04-20T10:13:57.340Z,98650.81
2023-04-20T10:16:02.655Z,98647.03
2023-04-20T10:18:20.561Z,98637.25
2023-04-20T10:20:29.649Z,98637.69
2023-04-20T10:22:35.974Z,98644.91
2023-04-20T10:24:42.197Z,98638.81
2023-04-20T10:26:48.917Z,98641.34
2023-04-20T10:28:56.517Z,98639.75
2023-04-20T10:31:02.241Z,98643.16
2023-04-20T10:33:10.114Z,98636.94
2023-04-20T10:35:16.361Z,98630.84
2023-04-20T10:37:21.430Z,98621.63
2023-04-20T10:39:27.730Z,98623.75
2023-04-20T10:41:33.537Z,98621.41
2023-04-20T10:43:42.263Z,98620.88
2023-04-20T10:45:50.793Z,98616.56
2023-04-20T10:47:56.696Z,98612.75
2023-04-20T10:50:13.872Z,98604.47
2023-04-20T10:52:21.829Z,98608.84
2023-04-20T10:54:27.226Z,98615.00
2023-04-20T10:56:41.248Z,98608.72
2023-04-20T10:58:46.261Z,98606.19
2023-04-20T11:01:03.999Z,98603.69
2023-04-20T11:03:09.791Z,98604.38
2023-04-20T11:05:16.133Z,98599.94
2023-04-20T11:07:21.720Z,98610.94
2023-04-20T11:09:29.001Z,98603.81
2023-04-20T11:11:37.421Z,98596.19
2023-04-20T11:13:42.563Z,98591.66
2023-04-20T11:15:47.890Z,98584.47
2023-04-20T11:17:55.806Z,98569.00
2023-04-20T11:20:11.058Z,98564.06
2023-04-20T11:22:25.605Z,98563.72
2023-04-20T11:24:34.077Z,98567.78
2023-04-20T11:26:44.235Z,98568.34
2023-04-20T11:28:57.286Z,98562.94
2023-04-20T11:31:02.529Z,98559.31
2023-04-20T11:33:10.833Z,98561.88
2023-04-20T11:35:16.287Z,98563.16
2023-04-20T11:37:21.469Z,98560.06
2023-04-20T11:39:27.528Z,98563.06
2023-04-20T11:41:32.757Z,98554.44
2023-04-20T11:43:39.030Z,98553.06
2023-04-20T11:45:44.458Z,98548.94
2023-04-20T11:47:49.797Z,98551.56
2023-04-20T11:49:57.441Z,98551.16
2023-04-20T11:52:02.674Z,98549.84
2023-04-20T11:54:07.873Z,98550.56
2023-04-20T11:56:12.894Z,98539.44
2023-04-20T11:58:18.242Z,98531.81
2023-04-20T12:00:24.640Z,98546.25
2023-04-20T12:02:30.152Z,98546.06
2023-04-20T12:04:36.050Z,98551.22
2023-04-20T12:06:44.190Z,98552.69
2023-04-20T12:08:49.272Z,98555.94
2023-04-20T12:10:55.489Z,98557.91
2023-04-20T12:13:02.496Z,98542.50
2023-04-20T12:15:09.658Z,98539.75
2023-04-20T12:17:14.701Z,98551.03
2023-04-20T12:19:20.446Z,98544.75
2023-04-20T12:21:25.980Z,98543.09
2023-04-20T12:23:34.154Z,98539.03
2023-04-20T12:25:39.188Z,98537.41
2023-04-20T12:27:44.424Z,98533.41
2023-04-20T12:29:49.440Z,98538.03
2023-04-20T12:31:54.778Z,98529.22
2023-04-20T12:34:00.244Z,98534.78
2023-04-20T12:36:05.406Z,98534.06
2023-04-20T12:38:12.359Z,98527.47
2023-04-20T12:40:21.555Z,98530.72
2023-04-20T12:42:27.184Z,98534.41
2023-04-20T12:44:32.509Z,98531.72
2023-04-20T12:46:37.591Z,98551.06
2023-04-20T12:48:42.911Z,98547.75
2023-04-20T12:50:48.186Z,98549.50
2023-04-20T12:52:56.194Z,98552.03
2023-04-20T12:55:01.571Z,98555.09
2023-04-20T12:57:09.261Z,98550.50
2023-04-20T12:59:14.463Z,98551.88
2023-04-20T13:01:19.962Z,98555.88
2023-04-20T13:03:25.448Z,98555.63
2023-04-20T13:05:31.212Z,98557.16
2023-04-20T13:07:36.726Z,98549.16
2023-04-20T13:09:42.097Z,98551.06
2023-04-20T13:11:47.414Z,98554.34
2023-04-20T13:13:56.610Z,98550.88
2023-04-20T13:16:01.654Z,98552.34
2023-04-20T13:18:07.230Z,98551.81
2023-04-20T13:20:14.134Z,98557.41
2023-04-20T13:22:19.734Z,98554.44
2023-04-20T13:24:24.761Z,98562.06
2023-04-20T13:26:29.815Z,98563.16
2023-04-20T13:28:35.113Z,98562.81
2023-04-20T13:30:42.737Z,98574.59
2023-04-20T13:32:47.801Z,98574.69
2023-04-20T13:34:52.838Z,98575.84
2023-04-20T13:36:58.423Z,98576.91
2023-04-20T13:39:05.201Z,98578.69
2023-04-20T13:41:10.234Z,98582.03
2023-04-20T13:43:15.792Z,98575.41
2023-04-20T13:45:21.290Z,98571.41
2023-04-20T13:47:29.035Z,98571.44
2023-04-20T13:49:34.239Z,98572.91
2023-04-20T13:51:39.647Z,98566.19
2023-04-20T13:53:44.717Z,98558.63
2023-04-20T13:55:49.714Z,98564.69
2023-04-20T13:57:55.499Z,98558.78
2023-04-20T14:00:01.302Z,98549.00
2023-04-20T14:02:11.177Z,98547.19
2023-04-20T14:04:19.510Z,98543.72
2023-04-20T14:06:25.882Z,98556.34
2023-04-20T14:08:31.003Z,98554.88
2023-04-20T14:10:39.891Z,98569.91
2023-04-20T14:12:44.924Z,98561.94
2023-04-20T14:14:50.277Z,98568.91
2023-04-20T14:16:55.294Z,98563.22
2023-04-20T14:19:00.776Z,98560.66
2023-04-20T14:21:09.223Z,98570.88
2023-04-20T14:23:14.969Z,98564.38
2023-04-20T14:25:20.467Z,98560.47
2023-04-20T14:27:25.521Z,98563.00
2023-04-20T14:29:30.965Z,98556.28
2023-04-20T14:31:37.287Z,98553.13
2023-04-20T14:33:44.724Z,98552.22
2023-04-20T14:35:50.140Z,98552.22
2023-04-20T14:37:57.771Z,98539.81
2023-04-20T14:40:03.396Z,98543.31
2023-04-20T14:42:08.779Z,98545.97
2023-04-20T14:44:13.831Z,98543.47
2023-04-20T14:46:19.258Z,98551.78
2023-04-20T14:48:25.176Z,98555.00
2023-04-20T14:50:32.722Z,98547.47
2023-04-20T14:52:37.892Z,98545.03
2023-04-20T14:54:45.712Z,98540.09
2023-04-20T14:56:51.124Z,98533.41
2023-04-20T14:58:57.382Z,98530.09
2023-04-20T15:01:02.755Z,98516.78
2023-04-20T15:03:07.997Z,98515.00
2023-04-20T15:05:13.881Z,98508.31
2023-04-20T15:07:19.412Z,98514.00
2023-04-20T15:09:24.603Z,98519.09
2023-04-20T15:11:32.186Z,98515.13
2023-04-20T15:13:41.142Z,98515.13
2023-04-20T15:15:48.935Z,98506.75
2023-04-20T15:17:54.784Z,98504.22
2023-04-20T15:19:59.805Z,98501.78
2023-04-20T15:22:04.835Z,98504.34
2023-04-20T15:24:10.608Z,98513.56
2023-04-20T15:26:16.158Z,98513.44
2023-04-20T15:28:23.805Z,98513.56
2023-04-20T15:30:28.863Z,98515.16
2023-04-20T15:32:34.200Z,98506.91
2023-04-20T15:34:39.263Z,98506.97
2023-04-20T15:36:44.653Z,98514.56
2023-04-20T15:38:49.773Z,98507.13
2023-04-20T15:40:55.898Z,98508.66
2023-04-20T15:43:02.893Z,98505.31
2023-04-20T15:45:11.990Z,98513.66
2023-04-20T15:47:17.040Z,98517.91
2023-04-20T15:49:22.638Z,98518.50
2023-04-20T15:51:28.304Z,98513.78
2023-04-20T15:53:33.417Z,98508.81
2023-04-20T15:55:41.435Z,98508.06
2023-04-20T15:57:46.457Z,98504.03
2023-04-20T15:59:51.453Z,98500.63
2023-04-20T16:01:59.812Z,98508.28
2023-04-20T16:04:04.996Z,98503.88
2023-04-20T16:06:10.689Z,98511.53
2023-04-20T16:08:18.973Z,98506.41
2023-04-20T16:10:24.058Z,98503.97
2023-04-20T16:12:29.259Z,98498.88
2023-04-20T16:14:34.559Z,98512.00
2023-04-20T16:16:39.567Z,98510.13
2023-04-20T16:18:48.317Z,98509.78
2023-04-20T16:20:53.731Z,98509.97
2023-04-20T16:22:58.735Z,98511.28
2023-04-20T16:25:03.759Z,98506.25
2023-04-20T16:27:08.774Z,98506.38
2023-04-20T16:29:13.997Z,98506.25
2023-04-20T16:31:19.030Z,98507.06
2023-04-20T16:33:24.486Z,98512.84
2023-04-20T16:35:32.383Z,98514.38
2023-04-20T16:37:37.409Z,98521.19
2023-04-20T16:39:43.128Z,98519.44
2023-04-20T16:41:48.211Z,98526.44
2023-04-20T16:43:53.203Z,98519.69
2023-04-20T16:45:58.256Z,98521.09
2023-04-20T16:48:03.430Z,98512.69
2023-04-20T16:50:10.284Z,98516.06
2023-04-20T16:52:17.873Z,98512.69
2023-04-20T16:54:23.353Z,98515.25
2023-04-20T16:56:28.502Z,98514.19
2023-04-20T16:58:34.080Z,98511.84
2023-04-20T17:00:39.788Z,98519.44
2023-04-20T17:02:45.005Z,98514.59
2023-04-20T17:04:50.526Z,98508.91
2023-04-20T17:06:55.767Z,98509.78
2023-04-20T17:09:07.129Z,98514.66
2023-04-20T17:11:12.389Z,98519.69
2023-04-20T17:13:18.477Z,98515.63
2023-04-20T17:15:23.671Z,98514.88
2023-04-20T17:17:29.034Z,98519.09
2023-04-20T17:19:35.288Z,98513.31
2023-04-20T17:21:40.796Z,98512.34
2023-04-20T17:23:46.223Z,98506.69
2023-04-20T17:25:54.762Z,98510.91
2023-04-20T17:28:00.058Z,98511.81
2023-04-20T17:30:05.977Z,98505.06
2023-04-20T17:32:11.223Z,98513.47
2023-04-20T17:34:16.683Z,98515.91
2023-04-20T17:36:21.839Z,98510.00
2023-04-20T17:38:27.045Z,98511.63
2023-04-20T17:40:32.262Z,98511.59
2023-04-20T17:42:39.896Z,98518.59
2023-04-20T17:44:45.195Z,98517.78
2023-04-20T17:46:52.459Z,98516.28
2023-04-20T17:48:57.736Z,98518.72
2023-04-20T17:51:03.090Z,98518.88
2023-04-20T17:53:09.138Z,98524.72
2023-04-20T17:55:14.706Z,98523.97
2023-04-20T17:57:19.705Z,98522.25
2023-04-20T17:59:28.607Z,98523.88
2023-04-20T18:01:36.057Z,98526.47
2023-04-20T18:03:42.558Z,98530.88
2023-04-20T18:05:48.638Z,98534.31
2023-04-20T18:07:53.730Z,98532.53
2023-04-20T18:09:58.760Z,98536.56
2023-04-20T18:12:04.116Z,98534.22
2023-04-20T18:14:09.402Z,98534.31
2023-04-20T18:16:17.556Z,98532.66
2023-04-20T18:18:22.818Z,98532.88
2023-04-20T18:20:29.443Z,98536.31
2023-04-20T18:22:36.056Z,98534.66
2023-04-20T18:24:41.318Z,98522.75
2023-04-20T18:26:46.313Z,98518.56
2023-04-20T18:28:51.295Z,98532.03
2023-04-20T18:30:58.924Z,98544.75
2023-04-20T18:33:06.945Z,98543.88
2023-04-20T18:35:13.756Z,98551.50
2023-04-20T18:37:19.018Z,98549.84
2023-04-20T18:39:24.030Z,98556.53
2023-04-20T18:41:30.509Z,98561.47
2023-04-20T18:43:35.522Z,98558.03
2023-04-20T18:45:40.533Z,98550.75
2023-04-20T18:47:46.175Z,98553.81
2023-04-20T18:49:54.226Z,98548.75
2023-04-20T18:51:59.269Z,98551.50
2023-04-20T18:54:04.277Z,98546.34
2023-04-20T18:56:10.289Z,98542.97
2023-04-20T18:58:15.450Z,98539.56
2023-04-20T19:00:21.638Z,98537.94
2023-04-20T19:02:27.500Z,98533.75
2023-04-20T19:04:33.052Z,98531.44
2023-04-20T19:06:40.756Z,98544.84
2023-04-20T19:08:45.802Z,98535.50
2023-04-20T19:10:50.812Z,98529.66
2023-04-20T19:12:55.832Z,98524.66
2023-04-20T19:15:00.807Z,98533.00
2023-04-20T19:17:08.534Z,98551.50
2023-04-20T19:19:13.551Z,98558.19
2023-04-20T19:21:21.002Z,98564.16
2023-04-20T19:23:29.620Z,98555.69
2023-04-20T19:25:37.147Z,98554.78
2023-04-20T19:27:42.225Z,98565.03
2023-04-20T19:29:47.296Z,98573.38
2023-04-20T19:31:52.347Z,98573.44
2023-04-20T19:33:57.431Z,98571.78
2023-04-20T19:36:03.532Z,98573.44
2023-04-20T19:38:08.519Z,98577.56
2023-04-20T19:40:16.402Z,98567.34
2023-04-20T19:42:22.940Z,98566.44
2023-04-20T19:44:28.302Z,98571.50
2023-04-20T19:46:33.586Z,98560.59
2023-04-20T19:48:38.926Z,98565.59
2023-04-20T19:50:43.937Z,98563.00
2023-04-20T19:52:49.065Z,98553.69
2023-04-20T19:54:54.070Z,98542.47
2023-04-20T19:57:01.886Z,98549.06
2023-04-20T19:59:06.980Z,98537.47
2023-04-20T20:01:12.282Z,98539.13
2023-04-20T20:03:17.871Z,98532.34
2023-04-20T20:05:23.080Z,98529.81
2023-04-20T20:07:28.788Z,98527.28
2023-04-20T20:09:33.867Z,98523.13
2023-04-20T20:11:39.000Z,98525.69
2023-04-20T20:13:46.606Z,98525.69
2023-04-20T20:15:51.877Z,98524.19
2023-04-20T20:17:58.823Z,98518.31
2023-04-20T20:20:06.237Z,98513.28
2023-04-20T20:22:11.646Z,98504.09
2023-04-20T20:24:16.730Z,98500.88
2023-04-20T20:26:21.854Z,98500.84
2023-04-20T20:28:27.053Z,98491.69
2023-04-20T20:30:35.021Z,98487.38
2023-04-20T20:32:41.272Z,98492.44
2023-04-20T20:34:46.528Z,98482.50
2023-04-20T20:36:53.389Z,98484.22
2023-04-20T20:38:58.489Z,98491.81
2023-04-20T20:41:04.237Z,98491.88
2023-04-20T20:43:10.921Z,98496.06
2023-04-20T20:45:16.494Z,98494.50
2023-04-20T20:47:24.082Z,98501.09
2023-04-20T20:49:29.225Z,98488.63
2023-04-20T20:51:34.484Z,98497.66
2023-04-20T20:53:40.178Z,98494.19
2023-04-20T20:55:45.191Z,98483.22
2023-04-20T20:57:50.471Z,98484.09
2023-04-20T20:59:55.721Z,98481.44
2023-04-20T21:02:00.852Z,98475.63
2023-04-20T21:04:08.659Z,98472.94
2023-04-20T21:06:14.152Z,98474.13
2023-04-20T21:08:19.373Z,98469.28
2023-04-20T21:10:24.443Z,98469.97
2023-04-20T21:12:29.569Z,98466.56
2023-04-20T21:14:34.655Z,98463.38
2023-04-20T21:16:40.119Z,98468.09
2023-04-20T21:18:45.221Z,98465.75
2023-04-20T21:20:52.807Z,98458.44
2023-04-20T21:22:57.809Z,98464.31
2023-04-20T21:25:02.829Z,98462.50
2023-04-20T21:27:08.095Z,98462.72
2023-04-20T21:29:13.209Z,98457.34
2023-04-20T21:31:18.199Z,98451.78
2023-04-20T21:33:23.566Z,98440.28
2023-04-20T21:35:28.596Z,98442.34
2023-04-20T21:37:36.634Z,98451.00
2023-04-20T21:39:41.804Z,98446.09
2023-04-20T21:41:47.189Z,98435.84
2023-04-20T21:43:55.086Z,98437.03
2023-04-20T21:46:00.131Z,98435.38
2023-04-20T21:48:05.883Z,98428.88
2023-04-20T21:50:11.796Z,98432.28
2023-04-20T21:52:16.790Z,98431.94
2023-04-20T21:54:24.420Z,98431.94
2023-04-20T21:56:29.489Z,98425.44
2023-04-20T21:58:35.010Z,98428.41
2023-04-20T22:00:39.998Z,98431.78
2023-04-20T22:02:45.537Z,98426.84
2023-04-20T22:04:51.240Z,98423.53
2023-04-20T22:06:56.449Z,98421.75
2023-04-20T22:09:01.947Z,98424.34
2023-04-20T22:11:10.000Z,98426.53
2023-04-20T22:13:16.375Z,98424.16
2023-04-20T22:15:22.434Z,98429.41
2023-04-20T22:17:29.897Z,98424.38
2023-04-20T22:19:34.914Z,98425.25
2023-04-20T22:21:40.626Z,98420.56
2023-04-20T22:23:45.657Z,98425.34
2023-04-20T22:25:50.677Z,98425.50
2023-04-20T22:27:58.265Z,98423.91
2023-04-20T22:30:03.697Z,98419.94
2023-04-20T22:32:09.207Z,98419.59
2023-04-20T22:34:14.214Z,98423.16
2023-04-20T22:36:19.276Z,98413.06
2023-04-20T22:38:24.318Z,98422.06
2023-04-20T22:40:30.025Z,98421.25
2023-04-20T22:42:36.094Z,98423.69
2023-04-20T22:44:43.937Z,98423.88
2023-04-20T22:46:51.025Z,98420.63
2023-04-20T22:48:56.789Z,98422.25
2023-04-20T22:51:03.040Z,98426.50
2023-04-20T22:53:08.057Z,98417.09
2023-04-20T22:55:14.776Z,98430.59
2023-04-20T22:57:21.083Z,98427.22
2023-04-20T22:59:26.617Z,98438.97
2023-04-20T23:01:34.185Z,98437.41
2023-04-20T23:03:39.545Z,98433.34
2023-04-20T23:05:45.215Z,98429.16
2023-04-20T23:07:50.306Z,98430.00
2023-04-20T23:09:56.888Z,98430.81
2023-04-20T23:12:03.546Z,98429.97
2023-04-20T23:14:08.992Z,98429.13
2023-04-20T23:16:14.043Z,98419.88
2023-04-20T23:18:21.717Z,98419.06
2023-04-20T23:20:28.014Z,98430.81
2023-04-20T23:22:33.036Z,98435.94
2023-04-20T23:24:38.830Z,98435.94
2023-04-20T23:26:43.809Z,98435.81
2023-04-20T23:28:48.808Z,98434.13
2023-04-20T23:30:53.994Z,98431.56
2023-04-20T23:32:59.036Z,98426.50
2023-04-20T23:35:08.323Z,98438.16
2023-04-20T23:37:13.342Z,98428.94
2023-04-20T23:39:18.520Z,98436.34
2023-04-20T23:41:25.256Z,98441.53
2023-04-20T23:43:30.259Z,98450.81
2023-04-20T23:45:35.995Z,98440.78
2023-04-20T23:47:41.311Z,98438.09
2023-04-20T23:49:46.358Z,98430.84
2023-04-20T23:51:54.184Z,98435.22
2023-04-20T23:53:59.201Z,98431.41
2023-04-20T23:56:04.490Z,98430.59
2023-04-20T23:58:09.495Z,98437.31
